sensor_id;sensor_type;location;lat;lon;timestamp;pressure;altitude;pressure_sealevel;temperature;humidity
61205;BME280;47068;55.780;37.520;2024-01-30T00:00:54;101039.53;;;1.79;74.88
61205;BME280;47068;55.780;37.520;2024-01-30T00:03:20;101048.03;;;1.84;74.06
61205;BME280;47068;55.780;37.520;2024-01-30T00:05:45;101049.88;;;1.82;74.69
61205;BME280;47068;55.780;37.520;2024-01-30T00:08:11;101043.75;;;1.82;74.65
61205;BME280;47068;55.780;37.520;2024-01-30T00:10:36;101035.50;;;1.89;74.29
61205;BME280;47068;55.780;37.520;2024-01-30T00:13:02;101040.94;;;1.86;74.20
61205;BME280;47068;55.780;37.520;2024-01-30T00:15:27;101034.72;;;1.87;74.42
61205;BME280;47068;55.780;37.520;2024-01-30T00:17:53;101030.03;;;1.94;74.54
61205;BME280;47068;55.780;37.520;2024-01-30T00:20:19;101045.72;;;1.95;73.85
61205;BME280;47068;55.780;37.520;2024-01-30T00:22:45;101038.84;;;1.93;74.61
61205;BME280;47068;55.780;37.520;2024-01-30T00:25:11;101037.63;;;2.00;73.99
61205;BME280;47068;55.780;37.520;2024-01-30T00:27:36;101006.31;;;1.61;74.38
61205;BME280;47068;55.780;37.520;2024-01-30T00:30:02;101039.59;;;1.78;74.55
61205;BME280;47068;55.780;37.520;2024-01-30T00:32:27;101032.66;;;1.77;74.78
61205;BME280;47068;55.780;37.520;2024-01-30T00:34:53;101036.03;;;1.62;74.72
61205;BME280;47068;55.780;37.520;2024-01-30T00:37:18;101021.19;;;1.61;75.32
61205;BME280;47068;55.780;37.520;2024-01-30T00:39:44;101011.06;;;1.72;75.13
61205;BME280;47068;55.780;37.520;2024-01-30T00:42:09;101033.97;;;1.85;75.02
61205;BME280;47068;55.780;37.520;2024-01-30T00:44:35;101026.84;;;1.87;74.88
61205;BME280;47068;55.780;37.520;2024-01-30T00:47:03;101019.28;;;1.81;75.30
61205;BME280;47068;55.780;37.520;2024-01-30T00:49:28;101020.88;;;1.85;75.12
61205;BME280;47068;55.780;37.520;2024-01-30T00:51:54;101028.25;;;1.94;75.08
61205;BME280;47068;55.780;37.520;2024-01-30T00:54:19;101026.28;;;2.00;74.43
61205;BME280;47068;55.780;37.520;2024-01-30T00:56:45;101015.31;;;1.91;74.70
61205;BME280;47068;55.780;37.520;2024-01-30T00:59:11;101003.25;;;1.87;73.96
61205;BME280;47068;55.780;37.520;2024-01-30T01:01:37;100996.69;;;1.79;74.26
61205;BME280;47068;55.780;37.520;2024-01-30T01:04:02;101029.81;;;1.98;74.66
61205;BME280;47068;55.780;37.520;2024-01-30T01:06:28;101006.34;;;1.78;74.45
61205;BME280;47068;55.780;37.520;2024-01-30T01:08:53;101003.94;;;1.74;74.86
61205;BME280;47068;55.780;37.520;2024-01-30T01:11:19;101020.94;;;1.84;74.36
61205;BME280;47068;55.780;37.520;2024-01-30T01:13:44;100964.16;;;1.47;75.14
61205;BME280;47068;55.780;37.520;2024-01-30T01:16:10;101016.06;;;1.76;75.29
61205;BME280;47068;55.780;37.520;2024-01-30T01:18:35;101012.28;;;1.82;75.50
61205;BME280;47068;55.780;37.520;2024-01-30T01:21:00;101015.44;;;1.88;75.14
61205;BME280;47068;55.780;37.520;2024-01-30T01:23:26;101015.06;;;1.96;75.31
61205;BME280;47068;55.780;37.520;2024-01-30T01:25:51;100999.63;;;1.90;75.10
61205;BME280;47068;55.780;37.520;2024-01-30T01:28:17;101012.38;;;1.97;74.94
61205;BME280;47068;55.780;37.520;2024-01-30T01:30:42;100999.63;;;1.90;74.71
61205;BME280;47068;55.780;37.520;2024-01-30T01:33:08;100976.03;;;1.73;75.02
61205;BME280;47068;55.780;37.520;2024-01-30T01:35:34;101016.63;;;2.00;74.75
61205;BME280;47068;55.780;37.520;2024-01-30T01:38:00;101000.41;;;1.92;74.41
61205;BME280;47068;55.780;37.520;2024-01-30T01:40:27;100993.22;;;1.95;75.13
61205;BME280;47068;55.780;37.520;2024-01-30T01:42:54;100987.66;;;2.02;74.83
61205;BME280;47068;55.780;37.520;2024-01-30T01:45:20;100978.72;;;2.06;74.96
61205;BME280;47068;55.780;37.520;2024-01-30T01:47:48;100980.94;;;2.13;74.60
61205;BME280;47068;55.780;37.520;2024-01-30T01:50:16;100987.72;;;2.17;74.30
61205;BME280;47068;55.780;37.520;2024-01-30T01:52:50;100989.56;;;2.15;74.03
61205;BME280;47068;55.780;37.520;2024-01-30T01:55:17;100991.44;;;2.13;74.16
61205;BME280;47068;55.780;37.520;2024-01-30T01:57:44;100990.59;;;2.13;74.49
61205;BME280;47068;55.780;37.520;2024-01-30T02:00:10;100974.31;;;2.06;74.20
61205;BME280;47068;55.780;37.520;2024-01-30T02:02:36;100985.28;;;2.14;74.04
61205;BME280;47068;55.780;37.520;2024-01-30T02:05:02;100975.69;;;2.13;74.07
61205;BME280;47068;55.780;37.520;2024-01-30T02:07:29;100977.53;;;2.11;74.54
61205;BME280;47068;55.780;37.520;2024-01-30T02:09:55;100958.38;;;2.09;74.03
61205;BME280;47068;55.780;37.520;2024-01-30T02:12:20;100989.41;;;2.18;74.30
61205;BME280;47068;55.780;37.520;2024-01-30T02:14:46;100993.16;;;2.14;74.03
61205;BME280;47068;55.780;37.520;2024-01-30T02:17:12;100994.28;;;2.09;74.68
61205;BME280;47068;55.780;37.520;2024-01-30T02:19:39;100973.66;;;2.01;75.15
61205;BME280;47068;55.780;37.520;2024-01-30T02:22:04;100986.72;;;2.03;75.66
61205;BME280;47068;55.780;37.520;2024-01-30T02:24:30;100993.53;;;1.89;75.13
61205;BME280;47068;55.780;37.520;2024-01-30T02:26:56;100989.84;;;1.93;75.65
61205;BME280;47068;55.780;37.520;2024-01-30T02:29:21;100983.88;;;1.90;75.55
61205;BME280;47068;55.780;37.520;2024-01-30T02:31:47;100976.78;;;1.92;76.26
61205;BME280;47068;55.780;37.520;2024-01-30T02:34:13;100976.84;;;2.08;76.04
61205;BME280;47068;55.780;37.520;2024-01-30T02:36:42;100965.94;;;2.15;75.41
61205;BME280;47068;55.780;37.520;2024-01-30T02:39:07;100973.78;;;2.00;75.25
61205;BME280;47068;55.780;37.520;2024-01-30T02:41:33;100983.09;;;2.05;75.64
61205;BME280;47068;55.780;37.520;2024-01-30T02:43:58;100940.72;;;1.95;75.52
61205;BME280;47068;55.780;37.520;2024-01-30T02:46:24;100986.00;;;2.33;74.67
61205;BME280;47068;55.780;37.520;2024-01-30T02:48:50;100976.03;;;2.40;74.85
61205;BME280;47068;55.780;37.520;2024-01-30T02:51:15;100975.09;;;2.41;74.46
61205;BME280;47068;55.780;37.520;2024-01-30T02:53:40;100973.91;;;2.47;74.15
61205;BME280;47068;55.780;37.520;2024-01-30T02:56:06;100956.41;;;2.30;73.92
61205;BME280;47068;55.780;37.520;2024-01-30T02:58:35;100989.16;;;2.40;73.80
61205;BME280;47068;55.780;37.520;2024-01-30T03:01:01;100975.44;;;2.35;74.64
61205;BME280;47068;55.780;37.520;2024-01-30T03:03:26;100991.53;;;2.45;74.90
61205;BME280;47068;55.780;37.520;2024-01-30T03:05:52;100972.47;;;2.41;74.26
61205;BME280;47068;55.780;37.520;2024-01-30T03:08:17;100978.78;;;2.54;73.87
61205;BME280;47068;55.780;37.520;2024-01-30T03:10:43;100980.50;;;2.38;74.52
61205;BME280;47068;55.780;37.520;2024-01-30T03:13:08;100990.47;;;2.49;74.91
61205;BME280;47068;55.780;37.520;2024-01-30T03:15:34;100999.00;;;2.52;74.47
61205;BME280;47068;55.780;37.520;2024-01-30T03:17:59;100981.88;;;2.45;74.68
61205;BME280;47068;55.780;37.520;2024-01-30T03:20:24;101000.06;;;2.65;74.37
61205;BME280;47068;55.780;37.520;2024-01-30T03:22:50;101006.31;;;2.63;74.21
61205;BME280;47068;55.780;37.520;2024-01-30T03:25:15;100990.34;;;2.50;74.36
61205;BME280;47068;55.780;37.520;2024-01-30T03:27:41;101011.66;;;2.61;74.30
61205;BME280;47068;55.780;37.520;2024-01-30T03:30:07;101007.34;;;2.60;74.39
61205;BME280;47068;55.780;37.520;2024-01-30T03:32:33;101002.75;;;2.64;74.26
61205;BME280;47068;55.780;37.520;2024-01-30T03:34:58;100991.56;;;2.60;74.41
61205;BME280;47068;55.780;37.520;2024-01-30T03:37:24;100993.63;;;2.71;74.29
61205;BME280;47068;55.780;37.520;2024-01-30T03:39:49;100981.41;;;2.70;74.18
61205;BME280;47068;55.780;37.520;2024-01-30T03:42:15;100996.16;;;2.72;73.89
61205;BME280;47068;55.780;37.520;2024-01-30T03:44:41;101003.13;;;2.73;74.46
61205;BME280;47068;55.780;37.520;2024-01-30T03:47:06;101007.53;;;2.73;74.44
61205;BME280;47068;55.780;37.520;2024-01-30T03:49:32;101016.19;;;2.75;74.40
61205;BME280;47068;55.780;37.520;2024-01-30T03:51:58;101013.19;;;2.65;74.24
61205;BME280;47068;55.780;37.520;2024-01-30T03:54:23;101013.25;;;2.64;74.54
61205;BME280;47068;55.780;37.520;2024-01-30T03:56:49;101009.97;;;2.60;74.36
61205;BME280;47068;55.780;37.520;2024-01-30T03:59:15;101004.31;;;2.68;74.68
61205;BME280;47068;55.780;37.520;2024-01-30T04:01:40;101015.56;;;2.70;74.13
61205;BME280;47068;55.780;37.520;2024-01-30T04:04:06;100998.59;;;2.60;74.34
61205;BME280;47068;55.780;37.520;2024-01-30T04:06:31;101022.53;;;2.71;74.67
61205;BME280;47068;55.780;37.520;2024-01-30T04:08:57;101019.03;;;2.70;74.71
61205;BME280;47068;55.780;37.520;2024-01-30T04:11:22;101018.03;;;2.73;74.49
61205;BME280;47068;55.780;37.520;2024-01-30T04:13:47;101023.16;;;2.76;74.30
61205;BME280;47068;55.780;37.520;2024-01-30T04:16:20;101017.97;;;2.74;74.16
61205;BME280;47068;55.780;37.520;2024-01-30T04:18:49;101000.13;;;2.64;74.56
61205;BME280;47068;55.780;37.520;2024-01-30T04:21:14;101023.91;;;2.78;74.72
61205;BME280;47068;55.780;37.520;2024-01-30T04:23:41;101001.75;;;2.66;74.35
61205;BME280;47068;55.780;37.520;2024-01-30T04:26:06;101000.91;;;2.66;74.64
61205;BME280;47068;55.780;37.520;2024-01-30T04:28:32;101008.06;;;2.80;74.53
61205;BME280;47068;55.780;37.520;2024-01-30T04:30:57;101007.56;;;2.89;74.30
61205;BME280;47068;55.780;37.520;2024-01-30T04:33:23;100991.78;;;2.89;74.33
61205;BME280;47068;55.780;37.520;2024-01-30T04:35:48;100996.88;;;2.92;74.00
61205;BME280;47068;55.780;37.520;2024-01-30T04:38:14;101004.69;;;2.93;74.05
61205;BME280;47068;55.780;37.520;2024-01-30T04:40:40;101008.75;;;2.99;74.07
61205;BME280;47068;55.780;37.520;2024-01-30T04:43:05;101005.38;;;2.97;74.45
61205;BME280;47068;55.780;37.520;2024-01-30T04:45:31;101010.44;;;3.00;74.62
61205;BME280;47068;55.780;37.520;2024-01-30T04:47:56;101010.38;;;3.01;74.20
61205;BME280;47068;55.780;37.520;2024-01-30T04:50:23;101011.28;;;3.00;74.28
61205;BME280;47068;55.780;37.520;2024-01-30T04:52:48;101006.81;;;3.02;73.91
61205;BME280;47068;55.780;37.520;2024-01-30T04:55:14;100995.53;;;3.00;73.88
61205;BME280;47068;55.780;37.520;2024-01-30T04:57:39;101002.41;;;3.03;73.51
61205;BME280;47068;55.780;37.520;2024-01-30T05:00:06;101009.44;;;3.02;73.35
61205;BME280;47068;55.780;37.520;2024-01-30T05:02:31;101018.75;;;2.92;73.83
61205;BME280;47068;55.780;37.520;2024-01-30T05:04:57;101011.72;;;2.93;74.17
61205;BME280;47068;55.780;37.520;2024-01-30T05:07:24;101001.13;;;2.94;74.26
61205;BME280;47068;55.780;37.520;2024-01-30T05:09:50;100998.41;;;2.96;74.29
61205;BME280;47068;55.780;37.520;2024-01-30T05:12:16;101008.75;;;2.99;74.19
61205;BME280;47068;55.780;37.520;2024-01-30T05:14:41;100996.09;;;3.05;74.13
61205;BME280;47068;55.780;37.520;2024-01-30T05:17:07;101005.13;;;3.17;73.93
61205;BME280;47068;55.780;37.520;2024-01-30T05:19:35;100993.66;;;3.18;74.04
61205;BME280;47068;55.780;37.520;2024-01-30T05:22:00;100998.94;;;3.18;73.70
61205;BME280;47068;55.780;37.520;2024-01-30T05:24:26;100988.41;;;3.02;73.40
61205;BME280;47068;55.780;37.520;2024-01-30T05:26:51;101026.25;;;3.15;73.52
61205;BME280;47068;55.780;37.520;2024-01-30T05:29:17;101020.72;;;3.20;73.30
61205;BME280;47068;55.780;37.520;2024-01-30T05:31:42;101024.47;;;3.16;73.12
61205;BME280;47068;55.780;37.520;2024-01-30T05:34:08;101024.03;;;3.08;73.60
61205;BME280;47068;55.780;37.520;2024-01-30T05:36:34;101026.72;;;3.06;74.02
61205;BME280;47068;55.780;37.520;2024-01-30T05:38:59;101027.44;;;3.10;73.96
61205;BME280;47068;55.780;37.520;2024-01-30T05:41:25;101005.38;;;2.97;73.65
61205;BME280;47068;55.780;37.520;2024-01-30T05:43:53;101023.31;;;3.04;73.79
61205;BME280;47068;55.780;37.520;2024-01-30T05:46:19;101005.69;;;2.91;73.98
61205;BME280;47068;55.780;37.520;2024-01-30T05:48:44;101028.34;;;2.93;74.16
61205;BME280;47068;55.780;37.520;2024-01-30T05:51:10;101033.97;;;3.03;74.17
61205;BME280;47068;55.780;37.520;2024-01-30T05:53:36;101005.69;;;2.91;73.93
61205;BME280;47068;55.780;37.520;2024-01-30T05:56:02;101030.13;;;3.08;74.07
61205;BME280;47068;55.780;37.520;2024-01-30T05:58:28;101018.84;;;3.06;74.12
61205;BME280;47068;55.780;37.520;2024-01-30T06:00:54;101046.09;;;3.21;74.31
61205;BME280;47068;55.780;37.520;2024-01-30T06:03:19;101047.78;;;3.22;73.65
61205;BME280;47068;55.780;37.520;2024-01-30T06:05:45;101034.06;;;3.17;74.00
61205;BME280;47068;55.780;37.520;2024-01-30T06:08:10;101040.47;;;3.27;73.82
61205;BME280;47068;55.780;37.520;2024-01-30T06:10:36;101046.09;;;3.37;73.75
61205;BME280;47068;55.780;37.520;2024-01-30T06:13:01;101025.22;;;3.18;72.86
61205;BME280;47068;55.780;37.520;2024-01-30T06:15:27;101054.56;;;3.26;73.27
61205;BME280;47068;55.780;37.520;2024-01-30T06:17:55;101038.38;;;3.18;73.67
61205;BME280;47068;55.780;37.520;2024-01-30T06:20:20;101031.84;;;3.09;73.61
61205;BME280;47068;55.780;37.520;2024-01-30T06:22:46;101054.75;;;3.23;73.76
61205;BME280;47068;55.780;37.520;2024-01-30T06:25:11;101047.19;;;3.17;73.46
61205;BME280;47068;55.780;37.520;2024-01-30T06:27:37;101053.47;;;3.14;73.64
61205;BME280;47068;55.780;37.520;2024-01-30T06:30:04;101048.63;;;3.23;74.02
61205;BME280;47068;55.780;37.520;2024-01-30T06:32:29;101064.44;;;3.38;73.53
61205;BME280;47068;55.780;37.520;2024-01-30T06:35:00;101070.63;;;3.37;73.17
61205;BME280;47068;55.780;37.520;2024-01-30T06:37:25;101063.75;;;3.35;73.35
61205;BME280;47068;55.780;37.520;2024-01-30T06:39:50;101051.59;;;3.32;73.01
61205;BME280;47068;55.780;37.520;2024-01-30T06:42:17;101064.84;;;3.46;73.10
61205;BME280;47068;55.780;37.520;2024-01-30T06:44:42;101064.41;;;3.54;72.59
61205;BME280;47068;55.780;37.520;2024-01-30T06:47:08;101049.59;;;3.37;72.29
61205;BME280;47068;55.780;37.520;2024-01-30T06:49:33;101077.41;;;3.41;72.63
61205;BME280;47068;55.780;37.520;2024-01-30T06:51:59;101067.47;;;3.46;72.94
61205;BME280;47068;55.780;37.520;2024-01-30T06:54:24;101070.53;;;3.54;73.01
61205;BME280;47068;55.780;37.520;2024-01-30T06:56:49;101070.53;;;3.54;72.45
61205;BME280;47068;55.780;37.520;2024-01-30T06:59:15;101062.53;;;3.56;72.88
61205;BME280;47068;55.780;37.520;2024-01-30T07:01:41;101077.13;;;3.62;72.53
61205;BME280;47068;55.780;37.520;2024-01-30T07:04:06;101068.16;;;3.66;72.39
61205;BME280;47068;55.780;37.520;2024-01-30T07:06:32;101083.44;;;3.59;72.24
61205;BME280;47068;55.780;37.520;2024-01-30T07:08:57;101079.59;;;3.49;72.58
61205;BME280;47068;55.780;37.520;2024-01-30T07:11:23;101079.34;;;3.53;72.86
61205;BME280;47068;55.780;37.520;2024-01-30T07:13:50;101081.31;;;3.66;72.63
61205;BME280;47068;55.780;37.520;2024-01-30T07:16:16;101057.63;;;3.66;72.27
61205;BME280;47068;55.780;37.520;2024-01-30T07:18:41;101086.81;;;3.77;72.04
61205;BME280;47068;55.780;37.520;2024-01-30T07:21:07;101083.25;;;3.78;72.02
61205;BME280;47068;55.780;37.520;2024-01-30T07:23:33;101089.38;;;3.78;71.83
61205;BME280;47068;55.780;37.520;2024-01-30T07:26:00;101053.03;;;3.53;71.87
61205;BME280;47068;55.780;37.520;2024-01-30T07:28:26;101089.59;;;3.74;71.67
61205;BME280;47068;55.780;37.520;2024-01-30T07:30:52;101092.50;;;3.69;72.06
61205;BME280;47068;55.780;37.520;2024-01-30T07:33:17;101091.22;;;3.76;71.94
61205;BME280;47068;55.780;37.520;2024-01-30T07:35:43;101078.84;;;3.63;72.26
61205;BME280;47068;55.780;37.520;2024-01-30T07:38:08;101103.81;;;3.87;71.70
61205;BME280;47068;55.780;37.520;2024-01-30T07:40:34;101106.47;;;4.01;71.51
61205;BME280;47068;55.780;37.520;2024-01-30T07:42:59;101099.34;;;4.03;70.99
61205;BME280;47068;55.780;37.520;2024-01-30T07:45:26;101111.41;;;4.07;70.92
61205;BME280;47068;55.780;37.520;2024-01-30T07:47:52;101097.63;;;4.02;70.79
61205;BME280;47068;55.780;37.520;2024-01-30T07:50:18;101105.78;;;4.13;70.56
61205;BME280;47068;55.780;37.520;2024-01-30T07:52:44;101110.78;;;4.02;70.44
61205;BME280;47068;55.780;37.520;2024-01-30T07:55:42;101099.34;;;4.03;70.73
61205;BME280;47068;55.780;37.520;2024-01-30T07:58:34;101109.50;;;4.09;71.06
61205;BME280;47068;55.780;37.520;2024-01-30T08:01:00;101109.50;;;4.09;70.70
61205;BME280;47068;55.780;37.520;2024-01-30T08:03:26;101100.19;;;4.04;70.08
61205;BME280;47068;55.780;37.520;2024-01-30T08:05:51;101105.88;;;4.12;70.83
61205;BME280;47068;55.780;37.520;2024-01-30T08:08:17;101106.56;;;4.00;70.73
61205;BME280;47068;55.780;37.520;2024-01-30T08:10:42;101096.13;;;3.82;71.11
61205;BME280;47068;55.780;37.520;2024-01-30T08:13:08;101101.25;;;3.85;71.63
61205;BME280;47068;55.780;37.520;2024-01-30T08:15:34;101100.19;;;3.88;71.55
61205;BME280;47068;55.780;37.520;2024-01-30T08:18:00;101091.56;;;3.86;71.37
61205;BME280;47068;55.780;37.520;2024-01-30T08:20:25;101092.91;;;3.93;71.63
61205;BME280;47068;55.780;37.520;2024-01-30T08:22:51;101095.28;;;3.97;71.28
61205;BME280;47068;55.780;37.520;2024-01-30T08:25:17;101085.09;;;3.91;71.47
61205;BME280;47068;55.780;37.520;2024-01-30T08:27:42;101108.00;;;4.05;71.77
61205;BME280;47068;55.780;37.520;2024-01-30T08:30:08;101077.63;;;3.84;70.93
61205;BME280;47068;55.780;37.520;2024-01-30T08:32:34;101108.09;;;4.04;71.35
61205;BME280;47068;55.780;37.520;2024-01-30T08:34:59;101104.59;;;4.03;71.49
61205;BME280;47068;55.780;37.520;2024-01-30T08:37:29;101095.97;;;4.15;71.38
61205;BME280;47068;55.780;37.520;2024-01-30T08:39:54;101089.25;;;4.25;70.70
61205;BME280;47068;55.780;37.520;2024-01-30T08:42:20;101080.34;;;4.28;70.37
61205;BME280;47068;55.780;37.520;2024-01-30T08:44:48;101070.59;;;4.14;69.90
61205;BME280;47068;55.780;37.520;2024-01-30T08:47:14;101088.41;;;4.25;70.88
61205;BME280;47068;55.780;37.520;2024-01-30T08:49:41;101093.22;;;4.32;70.69
61205;BME280;47068;55.780;37.520;2024-01-30T08:52:09;101090.44;;;4.35;70.22
61205;BME280;47068;55.780;37.520;2024-01-30T08:54:35;101109.69;;;4.36;70.23
61205;BME280;47068;55.780;37.520;2024-01-30T08:57:01;101097.31;;;4.22;70.20
61205;BME280;47068;55.780;37.520;2024-01-30T08:59:26;101100.72;;;4.24;70.59
61205;BME280;47068;55.780;37.520;2024-01-30T09:01:52;101097.66;;;4.32;70.49
61205;BME280;47068;55.780;37.520;2024-01-30T09:04:23;101092.47;;;4.30;70.45
61205;BME280;47068;55.780;37.520;2024-01-30T09:06:49;101092.28;;;4.33;70.17
61205;BME280;47068;55.780;37.520;2024-01-30T09:09:14;101099.63;;;4.28;70.32
61205;BME280;47068;55.780;37.520;2024-01-30T09:11:40;101101.31;;;4.29;70.40
61205;BME280;47068;55.780;37.520;2024-01-30T09:14:05;101091.31;;;4.20;70.66
61205;BME280;47068;55.780;37.520;2024-01-30T09:16:31;101091.47;;;4.17;70.69
61205;BME280;47068;55.780;37.520;2024-01-30T09:18:56;101092.06;;;4.22;70.70
61205;BME280;47068;55.780;37.520;2024-01-30T09:21:22;101093.03;;;4.21;70.71
61205;BME280;47068;55.780;37.520;2024-01-30T09:23:48;101092.47;;;4.30;70.68
61205;BME280;47068;55.780;37.520;2024-01-30T09:26:13;101094.38;;;4.28;69.76
61205;BME280;47068;55.780;37.520;2024-01-30T09:28:39;101092.47;;;4.30;70.49
61205;BME280;47068;55.780;37.520;2024-01-30T09:31:09;101076.94;;;4.26;70.21
61205;BME280;47068;55.780;37.520;2024-01-30T09:33:35;101089.88;;;4.45;70.54
61205;BME280;47068;55.780;37.520;2024-01-30T09:36:01;101092.00;;;4.68;70.27
61205;BME280;47068;55.780;37.520;2024-01-30T09:38:27;101090.38;;;4.80;69.73
61205;BME280;47068;55.780;37.520;2024-01-30T09:40:54;101088.13;;;4.88;68.69
61205;BME280;47068;55.780;37.520;2024-01-30T09:43:23;101092.72;;;4.84;68.76
61205;BME280;47068;55.780;37.520;2024-01-30T09:45:52;101088.31;;;4.85;68.58
61205;BME280;47068;55.780;37.520;2024-01-30T09:48:19;101089.38;;;4.82;68.51
61205;BME280;47068;55.780;37.520;2024-01-30T09:50:44;101070.22;;;4.79;68.44
61205;BME280;47068;55.780;37.520;2024-01-30T09:53:11;101077.28;;;4.78;68.97
61205;BME280;47068;55.780;37.520;2024-01-30T09:55:39;101075.97;;;4.71;69.00
61205;BME280;47068;55.780;37.520;2024-01-30T09:58:08;101068.81;;;4.73;69.01
61205;BME280;47068;55.780;37.520;2024-01-30T10:00:33;101070.69;;;4.85;69.06
61205;BME280;47068;55.780;37.520;2024-01-30T10:02:58;101054.78;;;4.72;68.36
61205;BME280;47068;55.780;37.520;2024-01-30T10:05:26;101061.28;;;4.67;68.51
61205;BME280;47068;55.780;37.520;2024-01-30T10:07:53;101070.03;;;4.67;68.89
61205;BME280;47068;55.780;37.520;2024-01-30T10:10:22;101079.19;;;4.76;68.68
61205;BME280;47068;55.780;37.520;2024-01-30T10:12:49;101066.19;;;4.73;68.96
61205;BME280;47068;55.780;37.520;2024-01-30T10:15:14;101073.53;;;4.82;68.52
61205;BME280;47068;55.780;37.520;2024-01-30T10:17:40;101079.56;;;4.70;68.62
61205;BME280;47068;55.780;37.520;2024-01-30T10:20:05;101086.50;;;4.71;69.42
61205;BME280;47068;55.780;37.520;2024-01-30T10:22:32;101087.75;;;4.80;68.98
61205;BME280;47068;55.780;37.520;2024-01-30T10:24:57;101077.75;;;4.70;68.91
61205;BME280;47068;55.780;37.520;2024-01-30T10:27:25;101062.78;;;4.71;68.82
61205;BME280;47068;55.780;37.520;2024-01-30T10:29:51;101093.78;;;4.82;68.77
61205;BME280;47068;55.780;37.520;2024-01-30T10:32:18;101072.41;;;4.72;69.06
61205;BME280;47068;55.780;37.520;2024-01-30T10:34:43;101046.31;;;4.53;68.94
61205;BME280;47068;55.780;37.520;2024-01-30T10:37:10;101090.13;;;4.70;68.95
61205;BME280;47068;55.780;37.520;2024-01-30T10:39:39;101091.13;;;4.67;69.32
61205;BME280;47068;55.780;37.520;2024-01-30T10:42:06;101088.97;;;4.74;69.41
61205;BME280;47068;55.780;37.520;2024-01-30T10:45:06;101088.13;;;4.73;69.21
61205;BME280;47068;55.780;37.520;2024-01-30T10:47:35;101079.75;;;4.67;69.66
61205;BME280;47068;55.780;37.520;2024-01-30T10:50:02;101073.91;;;4.76;69.21
61205;BME280;47068;55.780;37.520;2024-01-30T10:52:29;101076.56;;;4.90;69.24
61205;BME280;47068;55.780;37.520;2024-01-30T10:54:55;101071.63;;;5.12;68.50
61205;BME280;47068;55.780;37.520;2024-01-30T10:57:26;101078.91;;;5.23;67.77
61205;BME280;47068;55.780;37.520;2024-01-30T10:59:59;101067.78;;;5.32;68.14
61205;BME280;47068;55.780;37.520;2024-01-30T11:02:26;101079.34;;;5.30;67.12
61205;BME280;47068;55.780;37.520;2024-01-30T11:04:58;101071.81;;;5.24;67.46
61205;BME280;47068;55.780;37.520;2024-01-30T11:07:28;101083.34;;;5.08;67.25
61205;BME280;47068;55.780;37.520;2024-01-30T11:10:04;101085.28;;;5.05;68.11
61205;BME280;47068;55.780;37.520;2024-01-30T11:12:32;101081.06;;;5.02;68.09
61205;BME280;47068;55.780;37.520;2024-01-30T11:15:08;101084.47;;;4.90;68.29
61205;BME280;47068;55.780;37.520;2024-01-30T11:20:22;101085.88;;;4.96;68.59
61205;BME280;47068;55.780;37.520;2024-01-30T11:22:51;101075.13;;;4.85;68.29
61205;BME280;47068;55.780;37.520;2024-01-30T11:25:20;101083.50;;;4.91;68.67
61205;BME280;47068;55.780;37.520;2024-01-30T11:27:46;101084.34;;;4.92;68.48
61205;BME280;47068;55.780;37.520;2024-01-30T11:30:26;101086.91;;;4.93;68.78
61205;BME280;47068;55.780;37.520;2024-01-30T11:33:04;101074.09;;;4.73;68.26
61205;BME280;47068;55.780;37.520;2024-01-30T11:35:37;101079.19;;;4.76;68.32
61205;BME280;47068;55.780;37.520;2024-01-30T11:38:03;101108.94;;;4.78;68.73
61205;BME280;47068;55.780;37.520;2024-01-30T11:40:30;101111.22;;;4.70;68.61
61205;BME280;47068;55.780;37.520;2024-01-30T11:42:58;101109.66;;;4.66;68.95
61205;BME280;47068;55.780;37.520;2024-01-30T11:45:24;101107.44;;;4.74;69.05
61205;BME280;47068;55.780;37.520;2024-01-30T11:47:49;101124.75;;;4.78;68.98
61205;BME280;47068;55.780;37.520;2024-01-30T11:50:15;101115.72;;;4.82;69.11
61205;BME280;47068;55.780;37.520;2024-01-30T11:52:40;101128.06;;;4.82;68.83
61205;BME280;47068;55.780;37.520;2024-01-30T11:55:07;101128.53;;;4.74;69.29
61205;BME280;47068;55.780;37.520;2024-01-30T11:57:33;101121.47;;;4.74;69.13
61205;BME280;47068;55.780;37.520;2024-01-30T12:00:01;101107.97;;;4.65;69.12
61205;BME280;47068;55.780;37.520;2024-01-30T12:02:26;101123.78;;;4.65;68.87
61205;BME280;47068;55.780;37.520;2024-01-30T12:04:52;101123.38;;;4.57;69.67
61205;BME280;47068;55.780;37.520;2024-01-30T12:07:17;101119.16;;;4.54;69.56
61205;BME280;47068;55.780;37.520;2024-01-30T12:09:52;101121.13;;;4.51;69.75
61205;BME280;47068;55.780;37.520;2024-01-30T12:12:18;101121.72;;;4.56;69.80
61205;BME280;47068;55.780;37.520;2024-01-30T12:14:43;101128.22;;;4.64;69.74
61205;BME280;47068;55.780;37.520;2024-01-30T12:17:09;101124.06;;;4.60;69.49
61205;BME280;47068;55.780;37.520;2024-01-30T12:19:34;101120.97;;;4.54;69.60
61205;BME280;47068;55.780;37.520;2024-01-30T12:22:00;101129.72;;;4.54;69.61
61205;BME280;47068;55.780;37.520;2024-01-30T12:24:29;101112.66;;;4.46;69.47
61205;BME280;47068;55.780;37.520;2024-01-30T12:26:58;101120.16;;;4.38;69.86
61205;BME280;47068;55.780;37.520;2024-01-30T12:29:23;101124.88;;;4.47;70.05
61205;BME280;47068;55.780;37.520;2024-01-30T12:31:52;101124.34;;;4.56;70.02
61205;BME280;47068;55.780;37.520;2024-01-30T12:34:19;101114.38;;;4.61;70.10
61205;BME280;47068;55.780;37.520;2024-01-30T12:36:47;101115.22;;;4.61;69.97
61205;BME280;47068;55.780;37.520;2024-01-30T12:39:14;101124.38;;;4.70;69.75
61205;BME280;47068;55.780;37.520;2024-01-30T12:41:40;101112.41;;;4.64;69.60
61205;BME280;47068;55.780;37.520;2024-01-30T12:44:05;101123.06;;;4.63;69.87
61205;BME280;47068;55.780;37.520;2024-01-30T12:46:31;101123.06;;;4.63;69.98
61205;BME280;47068;55.780;37.520;2024-01-30T12:48:56;101123.78;;;4.65;70.14